createdAt,value
2019-02-17T00:01:44.863Z,42.78
2019-02-17T00:04:14.149Z,43.17
2019-02-17T00:06:43.076Z,43.27
2019-02-17T00:09:14.330Z,43.20
2019-02-17T00:11:43.278Z,42.67
2019-02-17T00:14:16.573Z,42.80
2019-02-17T00:16:45.546Z,43.42
2019-02-17T00:19:15.492Z,43.25
2019-02-17T00:21:44.446Z,42.45
2019-02-17T00:24:16.206Z,43.75
2019-02-17T00:26:46.207Z,42.48
2019-02-17T00:29:15.469Z,43.68
2019-02-17T00:31:44.398Z,43.87
2019-02-17T00:34:13.844Z,41.68
2019-02-17T00:36:44.710Z,42.78
2019-02-17T00:39:17.970Z,41.48
2019-02-17T00:41:47.148Z,40.17
2019-02-17T00:44:16.106Z,42.17
2019-02-17T00:46:45.083Z,40.03
2019-02-17T00:49:14.514Z,40.75
2019-02-17T00:51:43.834Z,41.65
2019-02-17T00:54:13.036Z,42.13
2019-02-17T00:56:42.066Z,42.83
2019-02-17T00:59:11.036Z,40.70
2019-02-17T01:01:40.128Z,41.23
2019-02-17T01:04:09.162Z,42.40
2019-02-17T01:06:38.132Z,39.80
2019-02-17T01:09:10.448Z,40.48
2019-02-17T01:11:39.522Z,41.37
2019-02-17T01:14:08.545Z,41.85
2019-02-17T01:16:40.335Z,42.50
2019-02-17T01:19:09.375Z,42.67
2019-02-17T01:21:38.417Z,41.60
2019-02-17T01:26:36.708Z,41.18
2019-02-17T01:29:05.696Z,42.93
2019-02-17T01:31:34.680Z,41.53
2019-02-17T01:34:07.196Z,42.95
2019-02-17T01:36:40.089Z,42.45
2019-02-17T01:39:14.823Z,41.65
2019-02-17T01:41:43.753Z,41.85
2019-02-17T01:44:14.038Z,41.30
2019-02-17T01:46:48.121Z,40.15
2019-02-17T01:49:17.089Z,41.80
2019-02-17T01:51:46.081Z,40.70
2019-02-17T01:54:15.295Z,38.73
2019-02-17T01:56:44.270Z,39.17
2019-02-17T01:59:13.238Z,39.78
2019-02-17T02:01:44.475Z,40.23
2019-02-17T02:04:13.444Z,39.88
2019-02-17T02:06:42.422Z,41.80
2019-02-17T02:09:11.393Z,41.45
2019-02-17T02:11:41.972Z,44.08
2019-02-17T02:14:10.948Z,41.15
2019-02-17T02:16:41.398Z,40.50
2019-02-17T02:19:13.527Z,41.60
2019-02-17T02:21:43.023Z,41.65
2019-02-17T02:24:11.989Z,41.63
2019-02-17T02:26:41.035Z,43.28
2019-02-17T02:29:11.657Z,41.53
2019-02-17T02:31:42.692Z,42.50
2019-02-17T02:34:11.677Z,42.65
2019-02-17T02:36:40.946Z,41.13
2019-02-17T02:39:09.882Z,41.30
2019-02-17T02:41:38.878Z,40.98
2019-02-17T02:44:12.248Z,40.95
2019-02-17T02:46:40.926Z,39.63
2019-02-17T02:49:15.103Z,42.15
2019-02-17T02:51:44.077Z,40.95
2019-02-17T02:54:13.036Z,41.48
2019-02-17T02:56:42.851Z,41.28
2019-02-17T02:59:14.208Z,40.95
2019-02-17T03:01:43.177Z,40.43
2019-02-17T03:04:15.149Z,39.42
2019-02-17T03:06:45.727Z,39.80
2019-02-17T03:09:14.707Z,39.95
2019-02-17T03:11:46.380Z,39.10
2019-02-17T03:14:15.423Z,39.60
2019-02-17T03:16:49.143Z,40.75
2019-02-17T03:19:17.237Z,39.13
2019-02-17T03:21:46.260Z,40.45
2019-02-17T03:24:20.265Z,40.12
2019-02-17T03:26:52.061Z,39.35
2019-02-17T03:29:21.276Z,39.55
2019-02-17T03:31:50.260Z,40.47
2019-02-17T03:34:20.848Z,39.10
2019-02-17T03:36:51.020Z,39.42
2019-02-17T03:41:50.895Z,37.90
2019-02-17T03:44:21.507Z,40.60
2019-02-17T03:46:50.745Z,39.88
2019-02-17T03:49:19.677Z,41.37
2019-02-17T03:51:48.662Z,39.50
2019-02-17T03:54:17.686Z,40.20
2019-02-17T03:56:48.767Z,38.55
2019-02-17T03:59:17.806Z,40.20
2019-02-17T04:01:49.427Z,38.73
2019-02-17T04:04:18.411Z,39.23
2019-02-17T04:06:47.424Z,39.50
2019-02-17T04:09:16.410Z,38.65
2019-02-17T04:11:48.057Z,38.67
2019-02-17T04:14:16.162Z,37.73
2019-02-17T04:16:45.207Z,37.23
2019-02-17T04:19:14.330Z,36.68
2019-02-17T04:21:43.357Z,37.58
2019-02-17T04:24:12.394Z,36.25
2019-02-17T04:26:41.370Z,37.17
2019-02-17T04:29:10.442Z,37.78
2019-02-17T04:31:41.089Z,35.48
2019-02-17T04:34:10.110Z,36.25
2019-02-17T04:36:39.098Z,36.88
2019-02-17T04:39:08.194Z,35.90
2019-02-17T04:41:37.167Z,37.03
2019-02-17T04:44:06.143Z,35.63
2019-02-17T04:46:38.011Z,36.93
2019-02-17T04:49:07.119Z,36.05
2019-02-17T04:51:42.411Z,36.45
2019-02-17T04:54:13.210Z,36.08
2019-02-17T04:56:42.179Z,36.42
2019-02-17T04:59:11.156Z,36.65
2019-02-17T05:01:40.142Z,34.95
2019-02-17T05:04:10.042Z,38.17
2019-02-17T05:06:40.808Z,35.60
2019-02-17T05:09:15.780Z,34.33
2019-02-17T05:11:49.301Z,34.25
2019-02-17T05:14:18.330Z,34.25
2019-02-17T05:16:53.273Z,35.70
2019-02-17T05:19:21.096Z,35.60
2019-02-17T05:21:50.411Z,34.85
2019-02-17T05:24:19.374Z,36.40
2019-02-17T05:26:52.261Z,35.92
2019-02-17T05:29:21.328Z,35.88
2019-02-17T05:31:50.301Z,34.95
2019-02-17T05:34:20.917Z,36.05
2019-02-17T05:36:49.927Z,37.50
2019-02-17T05:39:24.941Z,35.58
2019-02-17T05:41:54.049Z,36.68
2019-02-17T05:44:23.132Z,36.98
2019-02-17T05:46:52.133Z,37.35
2019-02-17T05:49:21.103Z,39.38
2019-02-17T05:51:50.108Z,37.00
2019-02-17T05:54:19.119Z,36.23
2019-02-17T05:56:48.259Z,37.08
2019-02-17T05:59:17.252Z,36.80
2019-02-17T06:01:49.037Z,34.73
2019-02-17T06:04:18.099Z,36.95
2019-02-17T06:06:47.093Z,36.63
2019-02-17T06:09:22.432Z,34.88
2019-02-17T06:11:51.422Z,35.85
2019-02-17T06:14:20.382Z,34.43
2019-02-17T06:16:49.471Z,35.30
2019-02-17T06:19:20.000Z,35.52
2019-02-17T06:21:51.227Z,36.25
2019-02-17T06:24:20.238Z,35.80
2019-02-17T06:26:49.242Z,35.55
2019-02-17T06:29:18.298Z,35.40
2019-02-17T06:31:47.341Z,35.65
2019-02-17T06:34:16.322Z,37.08
2019-02-17T06:36:45.309Z,36.95
2019-02-17T06:39:20.852Z,36.03
2019-02-17T06:41:51.508Z,35.45
2019-02-17T06:44:20.490Z,34.50
2019-02-17T06:46:51.098Z,35.85
2019-02-17T06:49:20.102Z,36.48
2019-02-17T06:51:49.982Z,35.30
2019-02-17T06:54:18.963Z,36.33
2019-02-17T06:56:49.632Z,35.88
2019-02-17T06:59:18.612Z,37.30
2019-02-17T07:01:47.592Z,35.83
2019-02-17T07:04:16.589Z,36.55
2019-02-17T07:06:47.282Z,37.73
2019-02-17T07:09:16.286Z,34.60
2019-02-17T07:11:46.785Z,36.40
2019-02-17T07:14:15.815Z,34.67
2019-02-17T07:16:44.827Z,35.90
2019-02-17T07:19:13.801Z,36.20
2019-02-17T07:21:42.811Z,34.65
2019-02-17T07:24:11.859Z,34.63
2019-02-17T07:26:40.873Z,35.23
2019-02-17T07:29:11.485Z,35.25
2019-02-17T07:31:41.025Z,34.98
2019-02-17T07:34:13.575Z,34.95
2019-02-17T07:36:42.574Z,34.27
2019-02-17T07:39:13.205Z,34.15
2019-02-17T07:41:42.315Z,34.45
2019-02-17T07:44:11.332Z,34.83
2019-02-17T07:46:40.307Z,34.48
2019-02-17T07:49:11.932Z,33.48
2019-02-17T07:51:40.971Z,34.30
2019-02-17T07:54:11.622Z,33.88
2019-02-17T07:56:40.691Z,33.92
2019-02-17T07:59:09.744Z,32.15
2019-02-17T08:01:45.315Z,33.18
2019-02-17T08:04:09.428Z,32.35
2019-02-17T08:06:40.206Z,32.80
2019-02-17T08:09:09.253Z,33.60
2019-02-17T08:11:38.245Z,31.68
2019-02-17T08:14:07.239Z,31.12
2019-02-17T08:16:36.222Z,31.60
2019-02-17T08:19:05.193Z,32.55
2019-02-17T08:21:35.790Z,31.52
2019-02-17T08:24:04.762Z,31.55
2019-02-17T08:26:33.753Z,31.65
2019-02-17T08:29:02.718Z,30.68
2019-02-17T08:34:02.592Z,30.43
2019-02-17T08:36:31.582Z,29.65
2019-02-17T08:39:00.556Z,31.15
2019-02-17T08:41:31.328Z,30.75
2019-02-17T08:44:00.964Z,30.15
2019-02-17T08:46:31.184Z,30.97
2019-02-17T08:49:00.150Z,31.00
2019-02-17T08:51:29.136Z,28.92
2019-02-17T08:53:58.145Z,31.15
2019-02-17T08:56:27.119Z,29.82
2019-02-17T08:58:59.036Z,29.18
2019-02-17T09:01:29.827Z,29.12
2019-02-17T09:03:58.851Z,29.05
2019-02-17T09:06:29.473Z,28.60
2019-02-17T09:09:00.084Z,28.67
2019-02-17T09:11:29.059Z,28.75
2019-02-17T09:13:58.139Z,28.55
2019-02-17T09:16:27.598Z,27.22
2019-02-17T09:18:56.661Z,27.62
2019-02-17T09:21:25.625Z,26.87
2019-02-17T09:23:54.611Z,28.12
2019-02-17T09:26:23.587Z,27.13
2019-02-17T09:28:52.575Z,26.45
2019-02-17T09:31:21.569Z,25.97
2019-02-17T09:33:50.562Z,26.73
2019-02-17T09:36:27.633Z,25.70
2019-02-17T09:38:56.891Z,24.75
2019-02-17T09:41:25.832Z,26.10
2019-02-17T09:43:54.813Z,25.50
2019-02-17T09:48:53.011Z,23.95
2019-02-17T09:51:21.995Z,24.30
2019-02-17T09:53:57.277Z,25.75
2019-02-17T09:56:26.267Z,25.92
2019-02-17T09:58:55.241Z,24.27
2019-02-17T10:01:24.222Z,24.25
2019-02-17T10:03:53.194Z,23.62
2019-02-17T10:06:22.185Z,23.85
2019-02-17T10:08:51.197Z,23.62
2019-02-17T10:11:20.207Z,24.65
2019-02-17T10:13:49.253Z,24.55
2019-02-17T10:16:18.247Z,23.87
2019-02-17T10:18:47.215Z,24.43
2019-02-17T10:21:18.807Z,24.20
2019-02-17T10:23:49.354Z,23.77
2019-02-17T10:26:18.083Z,23.77
2019-02-17T10:28:47.066Z,23.85
2019-02-17T10:31:16.033Z,23.65
2019-02-17T10:33:45.066Z,23.00
2019-02-17T10:36:14.095Z,24.72
2019-02-17T10:38:44.613Z,23.95
2019-02-17T10:41:13.604Z,24.40
2019-02-17T10:43:46.384Z,23.98
2019-02-17T10:46:15.415Z,24.57
2019-02-17T10:48:45.940Z,24.70
2019-02-17T10:51:14.898Z,24.47
2019-02-17T10:53:46.442Z,24.60
2019-02-17T10:56:20.688Z,24.57
2019-02-17T10:58:49.032Z,24.65
2019-02-17T11:01:17.991Z,24.12
2019-02-17T11:04:00.488Z,25.10
2019-02-17T11:06:31.316Z,25.82
2019-02-17T11:09:18.428Z,23.47
2019-02-17T11:11:47.668Z,22.80
2019-02-17T11:14:17.123Z,23.80
2019-02-17T11:16:46.088Z,23.85
2019-02-17T11:19:15.082Z,24.65
2019-02-17T11:21:47.350Z,25.25
2019-02-17T11:24:16.395Z,24.80
2019-02-17T11:26:46.039Z,25.30
2019-02-17T11:29:16.702Z,24.63
2019-02-17T11:31:45.805Z,24.85
2019-02-17T11:34:19.592Z,24.98
2019-02-17T11:36:48.560Z,25.02
2019-02-17T11:39:18.418Z,26.15
2019-02-17T11:41:47.418Z,24.18
2019-02-17T11:44:16.554Z,25.05
2019-02-17T11:46:45.568Z,25.70
2019-02-17T11:49:14.550Z,26.12
2019-02-17T11:51:44.141Z,25.35
2019-02-17T11:54:13.082Z,26.23
2019-02-17T11:56:42.070Z,26.57
2019-02-17T11:59:13.139Z,25.27
2019-02-17T12:01:42.202Z,26.12
2019-02-17T12:04:11.187Z,25.82
2019-02-17T12:06:45.315Z,25.10
2019-02-17T12:09:14.367Z,25.15
2019-02-17T12:11:44.975Z,25.68
2019-02-17T12:14:13.987Z,24.80
2019-02-17T12:16:45.939Z,25.05
2019-02-17T12:19:17.745Z,24.70
2019-02-17T12:21:48.429Z,25.72
2019-02-17T12:24:22.975Z,25.43
2019-02-17T12:27:08.905Z,24.90
2019-02-17T12:29:41.137Z,24.90
2019-02-17T12:32:10.179Z,23.83
2019-02-17T12:34:40.595Z,26.82
2019-02-17T12:37:12.245Z,25.17
2019-02-17T12:39:41.720Z,24.05
2019-02-17T12:42:10.789Z,25.80
2019-02-17T12:44:40.670Z,25.05
2019-02-17T12:47:09.657Z,23.45
2019-02-17T12:49:38.635Z,24.15
2019-02-17T12:52:11.185Z,24.40
2019-02-17T12:54:40.209Z,22.93
2019-02-17T12:57:09.287Z,23.87
2019-02-17T12:59:38.683Z,23.90
2019-02-17T13:02:07.669Z,23.42
2019-02-17T13:04:36.666Z,23.27
2019-02-17T13:07:05.641Z,23.67
2019-02-17T13:09:35.721Z,23.38
2019-02-17T13:12:04.699Z,23.12
2019-02-17T13:14:33.703Z,21.97
2019-02-17T13:17:02.723Z,21.35
2019-02-17T13:19:31.714Z,22.55
2019-02-17T13:22:00.747Z,21.43
2019-02-17T13:24:30.058Z,21.80
2019-02-17T13:26:59.046Z,21.07
2019-02-17T13:29:28.006Z,20.57
2019-02-17T13:31:56.984Z,20.50
2019-02-17T13:34:27.734Z,19.35
2019-02-17T13:36:56.822Z,21.80
2019-02-17T13:39:25.768Z,21.27
2019-02-17T13:41:54.770Z,20.82
2019-02-17T13:44:26.462Z,21.00
2019-02-17T13:46:55.490Z,20.02
2019-02-17T13:49:24.480Z,22.10
2019-02-17T13:51:53.433Z,22.00
2019-02-17T13:54:22.402Z,21.93
2019-02-17T13:56:52.434Z,20.57
2019-02-17T13:59:21.414Z,20.77
2019-02-17T14:01:50.410Z,19.00
2019-02-17T14:04:19.384Z,18.27
2019-02-17T14:06:48.332Z,17.53
2019-02-17T14:09:17.328Z,16.05
2019-02-17T14:11:46.274Z,17.47
2019-02-17T14:14:15.252Z,17.73
2019-02-17T14:16:44.238Z,17.95
2019-02-17T14:19:13.169Z,17.77
2019-02-17T14:21:42.136Z,16.57
2019-02-17T14:24:11.118Z,16.53
2019-02-17T14:26:40.114Z,16.80
2019-02-17T14:29:09.050Z,17.30
2019-02-17T14:31:38.108Z,17.43
2019-02-17T14:34:07.096Z,18.17
2019-02-17T14:36:36.100Z,18.80
2019-02-17T14:39:05.610Z,18.50
2019-02-17T14:41:34.613Z,18.65
2019-02-17T14:44:04.116Z,19.27
2019-02-17T14:46:33.105Z,19.02
2019-02-17T14:49:02.520Z,17.90
2019-02-17T14:51:31.715Z,17.98
2019-02-17T14:54:00.683Z,19.27
2019-02-17T14:56:29.631Z,19.70
2019-02-17T14:58:58.631Z,18.65
2019-02-17T15:01:27.597Z,19.43
2019-02-17T15:03:56.603Z,18.47
2019-02-17T15:06:27.000Z,18.70
2019-02-17T15:09:03.883Z,18.10
2019-02-17T15:11:32.863Z,17.82
2019-02-17T15:14:01.873Z,18.75
2019-02-17T15:16:30.883Z,17.50
2019-02-17T15:19:01.872Z,18.53
2019-02-17T15:21:30.577Z,18.05
2019-02-17T15:23:59.627Z,18.15
2019-02-17T15:26:28.639Z,18.57
2019-02-17T15:28:58.069Z,18.45
2019-02-17T15:31:27.086Z,18.48
2019-02-17T15:33:56.097Z,18.30
2019-02-17T15:36:25.082Z,18.05
2019-02-17T15:39:00.162Z,18.10
2019-02-17T15:41:29.141Z,17.25
2019-02-17T15:44:01.665Z,16.80
2019-02-17T15:46:30.707Z,16.73
2019-02-17T15:48:59.803Z,17.35
2019-02-17T15:51:28.761Z,16.37
2019-02-17T15:53:57.760Z,16.37
2019-02-17T15:56:26.755Z,16.73
2019-02-17T15:58:55.706Z,17.23
2019-02-17T16:01:27.446Z,16.03
2019-02-17T16:03:56.436Z,16.02
2019-02-17T16:06:26.631Z,16.60
2019-02-17T16:08:55.593Z,16.65
2019-02-17T16:11:33.364Z,15.95
2019-02-17T16:14:02.334Z,17.52
2019-02-17T16:16:33.511Z,16.40
2019-02-17T16:19:02.486Z,16.27
2019-02-17T16:21:33.154Z,15.88
2019-02-17T16:24:02.142Z,16.52
2019-02-17T16:26:31.122Z,15.65
2019-02-17T16:29:00.085Z,15.60
2019-02-17T16:31:29.087Z,16.40
2019-02-17T16:33:58.054Z,16.42
2019-02-17T16:36:27.046Z,15.50
2019-02-17T16:38:56.020Z,15.80
2019-02-17T16:41:25.048Z,15.85
2019-02-17T16:43:54.018Z,15.58
2019-02-17T16:46:22.992Z,15.25
2019-02-17T16:48:53.728Z,14.50
2019-02-17T16:51:22.737Z,15.68
2019-02-17T16:53:51.728Z,16.73
2019-02-17T16:56:27.325Z,16.35
2019-02-17T16:58:56.350Z,17.20
2019-02-17T17:01:25.329Z,19.52
2019-02-17T17:03:54.551Z,18.32
2019-02-17T17:06:23.518Z,17.63
2019-02-17T17:08:52.511Z,17.12
2019-02-17T17:11:21.494Z,18.45
2019-02-17T17:13:50.516Z,15.45
2019-02-17T17:16:19.562Z,15.45
2019-02-17T17:18:48.555Z,15.55
2019-02-17T17:21:19.078Z,16.80
2019-02-17T17:23:48.062Z,17.75
2019-02-17T17:26:17.043Z,16.60
2019-02-17T17:28:46.087Z,16.60
2019-02-17T17:31:15.093Z,15.85
2019-02-17T17:33:44.154Z,17.23
2019-02-17T17:36:16.430Z,16.25
2019-02-17T17:38:45.437Z,16.23
2019-02-17T17:41:16.019Z,15.40
2019-02-17T17:43:44.987Z,15.90
2019-02-17T17:46:13.974Z,14.38
2019-02-17T17:48:42.959Z,14.43
2019-02-17T17:51:11.949Z,13.98
2019-02-17T17:53:40.920Z,14.43
2019-02-17T17:56:09.907Z,13.78
2019-02-17T17:58:40.440Z,13.75
2019-02-17T18:01:09.430Z,13.00
2019-02-17T18:03:38.409Z,15.88
2019-02-17T18:06:10.503Z,16.42
2019-02-17T18:08:42.970Z,14.47
2019-02-17T18:11:11.937Z,13.43
2019-02-17T18:13:40.944Z,13.45
2019-02-17T18:16:09.931Z,13.03
2019-02-17T18:18:39.028Z,13.00
2019-02-17T18:21:07.991Z,14.20
2019-02-17T18:23:36.961Z,13.83
2019-02-17T18:26:05.994Z,12.73
2019-02-17T18:28:36.762Z,13.43
2019-02-17T18:31:05.741Z,14.15
2019-02-17T18:33:34.724Z,14.18
2019-02-17T18:36:03.713Z,13.50
2019-02-17T18:38:32.695Z,12.82
2019-02-17T18:41:01.771Z,13.03
2019-02-17T18:43:30.763Z,14.23
2019-02-17T18:46:01.793Z,13.88
2019-02-17T18:48:30.776Z,13.13
2019-02-17T18:50:59.784Z,12.45
2019-02-17T18:55:58.065Z,13.48
2019-02-17T18:58:27.086Z,13.62
2019-02-17T19:00:57.339Z,13.58
2019-02-17T19:03:26.338Z,12.30
2019-02-17T19:05:57.677Z,12.75
2019-02-17T19:08:26.022Z,12.90
2019-02-17T19:10:55.039Z,12.28
2019-02-17T19:13:24.029Z,12.85
2019-02-17T19:15:53.767Z,13.13
2019-02-17T19:18:23.024Z,12.70
2019-02-17T19:20:52.022Z,12.85
2019-02-17T19:23:21.004Z,12.75
2019-02-17T19:25:50.638Z,12.28
2019-02-17T19:28:19.636Z,13.58
2019-02-17T19:30:48.609Z,13.30
2019-02-17T19:33:17.614Z,14.18
2019-02-17T19:35:46.639Z,14.00
2019-02-17T19:40:46.999Z,14.75
2019-02-17T19:43:15.696Z,14.83
2019-02-17T19:48:15.537Z,14.05
2019-02-17T19:50:44.584Z,14.20
2019-02-17T19:53:13.568Z,14.18
2019-02-17T19:55:45.479Z,14.65
2019-02-17T19:58:14.474Z,13.95
2019-02-17T20:00:43.471Z,14.63
2019-02-17T20:03:23.057Z,14.87
2019-02-17T20:05:56.330Z,13.75
2019-02-17T20:08:25.355Z,14.38
2019-02-17T20:10:55.999Z,15.05
2019-02-17T20:13:24.982Z,14.13
2019-02-17T20:15:54.941Z,14.93
2019-02-17T20:18:23.911Z,13.75
2019-02-17T20:20:52.902Z,13.70
2019-02-17T20:23:25.625Z,13.83
2019-02-17T20:25:58.015Z,15.25
2019-02-17T20:28:40.632Z,15.85
2019-02-17T20:30:57.717Z,15.10
2019-02-17T20:33:26.772Z,14.78
2019-02-17T20:36:02.863Z,15.00
2019-02-17T20:38:28.183Z,15.43
2019-02-17T20:40:57.201Z,16.00
2019-02-17T20:43:26.181Z,15.55
2019-02-17T20:45:55.167Z,15.03
2019-02-17T20:48:24.163Z,14.55
2019-02-17T20:50:53.154Z,14.73
2019-02-17T20:53:22.135Z,14.93
2019-02-17T20:55:51.132Z,14.60
2019-02-17T20:58:20.107Z,14.80
2019-02-17T21:00:49.137Z,14.87
2019-02-17T21:03:18.151Z,14.28
2019-02-17T21:05:47.127Z,14.47
2019-02-17T21:08:16.135Z,14.05
2019-02-17T21:10:45.695Z,15.18
2019-02-17T21:13:14.690Z,15.08
2019-02-17T21:15:43.647Z,15.03
2019-02-17T21:18:12.675Z,13.80
2019-02-17T21:20:41.703Z,14.25
2019-02-17T21:23:10.715Z,14.75
2019-02-17T21:25:39.699Z,14.60
2019-02-17T21:28:08.686Z,13.88
2019-02-17T21:30:37.665Z,14.10
2019-02-17T21:33:06.978Z,14.07
2019-02-17T21:35:36.028Z,15.25
2019-02-17T21:38:05.092Z,14.30
2019-02-17T21:40:46.349Z,15.08
2019-02-17T21:43:18.763Z,15.38
2019-02-17T21:45:47.756Z,14.98
2019-02-17T21:48:18.577Z,14.93
2019-02-17T21:50:47.589Z,14.58
2019-02-17T21:53:20.486Z,15.80
2019-02-17T21:55:47.308Z,15.78
2019-02-17T21:58:16.294Z,15.83
2019-02-17T22:00:45.295Z,16.07
2019-02-17T22:03:14.630Z,15.88
2019-02-17T22:05:44.682Z,15.75
2019-02-17T22:08:13.864Z,16.73
2019-02-17T22:10:42.848Z,16.77
2019-02-17T22:13:11.850Z,16.48
2019-02-17T22:15:40.943Z,15.38
2019-02-17T22:18:12.155Z,16.55
2019-02-17T22:20:41.182Z,16.50
2019-02-17T22:23:10.214Z,16.52
2019-02-17T22:25:39.248Z,16.40
2019-02-17T22:28:10.464Z,16.12
2019-02-17T22:30:39.456Z,16.65
2019-02-17T22:33:10.089Z,16.50
2019-02-17T22:35:39.065Z,16.32
2019-02-17T22:38:14.955Z,16.27
2019-02-17T22:40:43.933Z,16.80
2019-02-17T22:43:15.854Z,16.97
2019-02-17T22:45:44.931Z,16.00
2019-02-17T22:48:13.933Z,17.07
2019-02-17T22:50:44.572Z,16.48
2019-02-17T22:53:13.612Z,16.57
2019-02-17T22:55:46.017Z,17.30
2019-02-17T22:58:15.051Z,17.25
2019-02-17T23:00:58.061Z,17.10
2019-02-17T23:03:29.078Z,17.27
2019-02-17T23:05:59.266Z,17.35
2019-02-17T23:08:28.332Z,17.45
2019-02-17T23:10:57.329Z,17.55
2019-02-17T23:13:28.099Z,17.23
2019-02-17T23:15:58.835Z,17.35
2019-02-17T23:18:28.255Z,18.23
2019-02-17T23:20:57.280Z,17.70
2019-02-17T23:23:27.821Z,16.23
2019-02-17T23:26:00.733Z,17.27
2019-02-17T23:28:29.793Z,17.45
2019-02-17T23:30:58.809Z,17.05
2019-02-17T23:33:27.821Z,17.52
2019-02-17T23:35:56.895Z,17.90
2019-02-17T23:38:25.923Z,16.93
2019-02-17T23:40:55.048Z,18.67
2019-02-17T23:43:27.079Z,17.60
2019-02-17T23:45:58.137Z,17.55
2019-02-17T23:48:28.927Z,17.98
2019-02-17T23:50:59.637Z,17.70
2019-02-17T23:53:28.677Z,18.05
2019-02-17T23:56:21.992Z,17.73
2019-02-17T23:58:51.014Z,17.82
